Pronóstico
Mapa Interactivo
Aviación
Climatología
Hidrometeorología
Agrometeorología
Estaciones Automáticas
Transparencia
OMM WMO
Portada
Institución
Noticias
Imágenes
Tsunami
Historial
Boletines y Alertas
Contactos
Buscar Contenidos
Informe del Tiempo

                                VUELOS DE BAJO NIVEL DESDE SUPERFICIE HASTA 24,000 PIES.

 
VALIDO DESDE 231200Z...…………………….…………………HASTA 240000Z

 

SANTO DOMINGO FIR...PORT-AU-PRINCE FIR HISPANIOLA...SCT020 SCT060. OCNL BKN020. TOP 150. OCNL VIS 3-5SM BR TIL 13Z. ISOL SHRA/TSRA. OTLK...VFR SHRA. WTRS...SCT030 SCT060. OCNL BKN030. TOP 150. ISOL SHRA/TSRA. WND ELY 20KT. OTLK...VFR SHRA WND.

 

 

5,000 FT.

10,000 FT.

18,000 FT.

24,000 FT.

MDSD

09020KT+17ºC

0620KT+07ºC

3320KT-07ºC

3005KT-19ºC

MTPP

0920KT+17ºC

0620KT+07ºC

3320KT-07ºC

3305KT-19ºC

TJSJ

0915KT+15ºC

0515KT+07ºC

3510KT-07ºC

0105KT-18ºC

 

 

 

 

 

TAF

 

TAF MDPP 231000Z 2312/2412 00000KT 9999 FEW016 BECMG 2313/2315 09010KT=

 

TAF MDST 231000Z 2312/2412 11005KT 9999 SCT018 SCT300 PROB40 2312/2316 2000 BR OVC010 BECMG 2316/2318 13016KT=

 

TAF MDPC 231000Z 2312/2412 09010KT 9999 FEW018 PROB40 2400/2404 8000 -RA SCT016 BKN070=

 

TAF MDBH 231000Z 2312/2412 27006KT 9999 FEW020 SCT300 BECMG 2315/2317 13012KT=

 

TAF MDJB 231000Z 2312/2412 03005KT 9999 SCT020 SCT300 BECMG 2317/2319 09006KT=

 

TAF MDSD 231000Z 2312/2412 04005KT 9999 FEW020 SCT300 BECMG 2317/2319 14008KT=

 

TAF MDLR 231000Z 2312/2412 00000KT 9999 FEW018 SCT300 BECMG 2315/2317 09010KT=

 

TAF MDCY 231000Z 2312/2412 00000KT 9999 SCT018 SCT300 BECMG 2315/2317 06010KT=

 

TAF KMIA 230959Z 2310/2412 13009KT P6SM FEW015 SCT020 BKN150 FM231400 16010KT P6SM VCSH SCT025 BKN050 FM240000 19005KT P6SM VCSH SCT025 BKN050 FM240200 VRB03KT P6SM BKN050 FM240600 32003KT P6SM OVC025=

TAF KJFK 230922Z 2309/2412 10009KT 1/2SM FG OVC004 WS020/20040KT TEMPO 2310/2311 1SM BR OVC006 FM231100 17011G21KT 2SM -SHRA BR OVC006 WS020/21045KT FM231400 18021G28KT 1SM SHRA BR BKN007 OVC012 WS020/20055KT FM231900 20016G24KT 4SM -SHRA BR SCT007 BKN015 WS020/21050KT FM232100 22014KT P6SM VCSH SCT015 BKN035 FM232300 26014G22KT P6SM SCT060=

 

TAF TJSJ 230520Z 2306/2406 07008KT P6SM FEW030 FM231400 08013KT P6SM SCT030 FM231800 07013G22KT P6SM VCSH FEW025 SCT050 FM232200 10009KT P6SM VCSH SCT025 SCT050=

TAF MUHA 230500Z 2306/2406 09003KT 9000 FEW025 TEMPO 2308/2311 5000 BR BECMG 2313/2315 16010KT BECMG 2401/2402 VRB03KT=

TAF MUGM 2307/2407 33008KT 9999 FEW035 SCT270 QNH2992INS BECMG 2316/2018 12015KT 9999 VCSH FEW030 SCT120 BKN270 QNH2994INS FM232000 06008KT 9999 VCSH SCT030CB SCT100 QNH2992INS BECMG 2301/2303 35008KT 9999 VCSH FEW035 SCT270 QNH2994INS T22/2311Z T31/2317Z FN00149=

TAF TNCC 230930Z 2312/2412 10013G23KT 9999 SCT020=


TAF MKJP 230515Z 2306/2406 35003KT 9999 FEW022 BECMG 2314/2316 14020KT BECMG 2401/2403 35005KT=

 

Maximina Familia.

   23/01/2018